sensor_id;sensor_type;location;lat;lon;timestamp;pressure;altitude;pressure_sealevel;temperature;humidity
11440;BME280;5776;51.814;4.510;2023-03-03T00:02:04;102581.22;;;5.22;97.53
11440;BME280;5776;51.814;4.510;2023-03-03T00:04:29;102584.94;;;5.21;97.19
11440;BME280;5776;51.814;4.510;2023-03-03T00:06:55;102579.34;;;5.16;97.25
11440;BME280;5776;51.814;4.510;2023-03-03T00:09:21;102582.88;;;5.16;98.34
11440;BME280;5776;51.814;4.510;2023-03-03T00:11:53;102579.34;;;5.16;97.71
11440;BME280;5776;51.814;4.510;2023-03-03T00:14:29;102574.41;;;5.13;98.69
11440;BME280;5776;51.814;4.510;2023-03-03T00:16:56;102576.88;;;5.14;97.53
11440;BME280;5776;51.814;4.510;2023-03-03T00:19:24;102581.84;;;5.11;98.22
11440;BME280;5776;51.814;4.510;2023-03-03T00:21:51;102584.13;;;5.14;98.41
11440;BME280;5776;51.814;4.510;2023-03-03T00:24:36;102577.72;;;5.15;98.66
11440;BME280;5776;51.814;4.510;2023-03-03T00:27:16;102571.91;;;5.18;97.64
11440;BME280;5776;51.814;4.510;2023-03-03T00:29:48;102567.75;;;5.22;98.22
11440;BME280;5776;51.814;4.510;2023-03-03T00:32:21;102578.72;;;5.14;98.01
11440;BME280;5776;51.814;4.510;2023-03-03T00:34:47;102580.41;;;5.15;98.81
11440;BME280;5776;51.814;4.510;2023-03-03T00:39:52;102585.59;;;5.10;98.82
11440;BME280;5776;51.814;4.510;2023-03-03T00:42:18;102587.84;;;5.13;98.24
11440;BME280;5776;51.814;4.510;2023-03-03T00:44:46;102580.19;;;5.16;98.10
11440;BME280;5776;51.814;4.510;2023-03-03T00:47:30;102583.53;;;5.12;98.49
11440;BME280;5776;51.814;4.510;2023-03-03T00:52:40;102582.91;;;5.10;98.41
11440;BME280;5776;51.814;4.510;2023-03-03T00:55:10;102590.34;;;5.08;98.47
11440;BME280;5776;51.814;4.510;2023-03-03T00:57:36;102584.34;;;5.12;99.24
11440;BME280;5776;51.814;4.510;2023-03-03T01:00:03;102581.44;;;5.14;99.20
11440;BME280;5776;51.814;4.510;2023-03-03T01:02:29;102589.50;;;5.14;98.71
11440;BME280;5776;51.814;4.510;2023-03-03T01:04:56;102577.50;;;5.10;98.26
11440;BME280;5776;51.814;4.510;2023-03-03T01:07:22;102586.59;;;5.09;98.48
11440;BME280;5776;51.814;4.510;2023-03-03T01:09:48;102589.72;;;5.06;98.74
11440;BME280;5776;51.814;4.510;2023-03-03T01:12:14;102590.34;;;5.08;99.13
11440;BME280;5776;51.814;4.510;2023-03-03T01:14:41;102590.78;;;5.05;98.79
11440;BME280;5776;51.814;4.510;2023-03-03T01:17:07;102582.69;;;5.05;98.69
11440;BME280;5776;51.814;4.510;2023-03-03T01:19:33;102585.78;;;5.08;98.69
11440;BME280;5776;51.814;4.510;2023-03-03T01:22:00;102587.47;;;5.03;99.94
11440;BME280;5776;51.814;4.510;2023-03-03T01:24:26;102591.41;;;5.00;99.55
11440;BME280;5776;51.814;4.510;2023-03-03T01:26:51;102583.50;;;4.98;99.94
11440;BME280;5776;51.814;4.510;2023-03-03T01:29:18;102585.38;;;4.98;99.46
11440;BME280;5776;51.814;4.510;2023-03-03T01:31:44;102587.88;;;5.00;98.93
11440;BME280;5776;51.814;4.510;2023-03-03T01:34:10;102580.81;;;4.98;100.00
11440;BME280;5776;51.814;4.510;2023-03-03T01:36:36;102579.19;;;4.97;100.00
11440;BME280;5776;51.814;4.510;2023-03-03T01:39:02;102584.13;;;4.94;99.51
11440;BME280;5776;51.814;4.510;2023-03-03T01:41:30;102578.75;;;4.87;100.00
11440;BME280;5776;51.814;4.510;2023-03-03T01:43:58;102591.41;;;4.87;100.00
11440;BME280;5776;51.814;4.510;2023-03-03T01:49:19;102580.22;;;4.90;99.40
11440;BME280;5776;51.814;4.510;2023-03-03T01:51:59;102584.13;;;4.94;100.00
11440;BME280;5776;51.814;4.510;2023-03-03T01:54:46;102590.97;;;4.90;99.48
11440;BME280;5776;51.814;4.510;2023-03-03T01:57:23;102573.97;;;4.96;99.05
11440;BME280;5776;51.814;4.510;2023-03-03T01:59:51;102578.97;;;4.92;100.00
11440;BME280;5776;51.814;4.510;2023-03-03T02:02:18;102576.06;;;4.87;100.00
11440;BME280;5776;51.814;4.510;2023-03-03T02:04:44;102585.38;;;4.85;100.00
11440;BME280;5776;51.814;4.510;2023-03-03T02:07:13;102582.91;;;4.90;100.00
11440;BME280;5776;51.814;4.510;2023-03-03T02:10:04;102588.28;;;4.90;100.00
11440;BME280;5776;51.814;4.510;2023-03-03T02:12:53;102578.34;;;4.90;99.75
11440;BME280;5776;51.814;4.510;2023-03-03T02:15:40;102589.97;;;4.84;100.00
11440;BME280;5776;51.814;4.510;2023-03-03T02:18:11;102575.44;;;4.85;100.00
11440;BME280;5776;51.814;4.510;2023-03-03T02:26:33;102591.19;;;4.82;100.00
11440;BME280;5776;51.814;4.510;2023-03-03T02:29:01;102590.97;;;4.83;100.00
11440;BME280;5776;51.814;4.510;2023-03-03T02:31:28;102588.69;;;4.80;100.00
11440;BME280;5776;51.814;4.510;2023-03-03T02:33:55;102587.88;;;4.80;100.00
11440;BME280;5776;51.814;4.510;2023-03-03T02:36:23;102583.13;;;4.82;100.00
11440;BME280;5776;51.814;4.510;2023-03-03T02:39:13;102580.00;;;4.78;100.00
11440;BME280;5776;51.814;4.510;2023-03-03T02:42:09;102576.28;;;4.79;100.00
11440;BME280;5776;51.814;4.510;2023-03-03T02:44:37;102585.38;;;4.78;100.00
11440;BME280;5776;51.814;4.510;2023-03-03T02:47:04;102581.25;;;4.75;100.00
11440;BME280;5776;51.814;4.510;2023-03-03T02:49:32;102578.75;;;4.74;100.00
11440;BME280;5776;51.814;4.510;2023-03-03T02:52:00;102582.91;;;4.70;100.00
11440;BME280;5776;51.814;4.510;2023-03-03T02:54:28;102581.22;;;4.69;100.00
11440;BME280;5776;51.814;4.510;2023-03-03T02:56:57;102579.38;;;4.69;100.00
11440;BME280;5776;51.814;4.510;2023-03-03T02:59:23;102581.22;;;4.69;100.00
11440;BME280;5776;51.814;4.510;2023-03-03T03:01:50;102580.00;;;4.65;100.00
11440;BME280;5776;51.814;4.510;2023-03-03T03:04:19;102575.44;;;4.65;100.00
11440;BME280;5776;51.814;4.510;2023-03-03T03:06:46;102580.00;;;4.65;100.00
11440;BME280;5776;51.814;4.510;2023-03-03T03:09:13;102581.66;;;4.66;100.00
11440;BME280;5776;51.814;4.510;2023-03-03T03:11:39;102587.84;;;4.66;100.00
11440;BME280;5776;51.814;4.510;2023-03-03T03:14:07;102578.53;;;4.62;100.00
11440;BME280;5776;51.814;4.510;2023-03-03T03:16:33;102578.13;;;4.65;100.00
11440;BME280;5776;51.814;4.510;2023-03-03T03:19:00;102582.06;;;4.69;100.00
11440;BME280;5776;51.814;4.510;2023-03-03T03:21:26;102580.41;;;4.62;100.00
11440;BME280;5776;51.814;4.510;2023-03-03T03:23:52;102589.31;;;4.62;100.00
11440;BME280;5776;51.814;4.510;2023-03-03T03:26:18;102584.53;;;4.58;100.00
11440;BME280;5776;51.814;4.510;2023-03-03T03:28:46;102589.91;;;4.58;100.00
11440;BME280;5776;51.814;4.510;2023-03-03T03:31:13;102592.81;;;4.56;100.00
11440;BME280;5776;51.814;4.510;2023-03-03T03:33:39;102595.72;;;4.54;100.00
11440;BME280;5776;51.814;4.510;2023-03-03T03:36:05;102595.31;;;4.58;100.00
11440;BME280;5776;51.814;4.510;2023-03-03T03:38:32;102592.22;;;4.54;100.00
11440;BME280;5776;51.814;4.510;2023-03-03T03:40:59;102602.13;;;4.53;100.00
11440;BME280;5776;51.814;4.510;2023-03-03T03:43:25;102593.63;;;4.50;100.00
11440;BME280;5776;51.814;4.510;2023-03-03T03:45:51;102601.53;;;4.51;100.00
11440;BME280;5776;51.814;4.510;2023-03-03T03:48:17;102598.38;;;4.48;100.00
11440;BME280;5776;51.814;4.510;2023-03-03T03:50:49;102604.81;;;4.47;100.00
11440;BME280;5776;51.814;4.510;2023-03-03T03:53:16;102611.44;;;4.44;100.00
11440;BME280;5776;51.814;4.510;2023-03-03T03:55:43;102607.69;;;4.45;100.00
11440;BME280;5776;51.814;4.510;2023-03-03T03:58:16;102604.38;;;4.43;100.00
11440;BME280;5776;51.814;4.510;2023-03-03T04:00:43;102609.56;;;4.45;100.00
11440;BME280;5776;51.814;4.510;2023-03-03T04:03:09;102606.44;;;4.41;100.00
11440;BME280;5776;51.814;4.510;2023-03-03T04:05:36;102613.91;;;4.39;100.00
11440;BME280;5776;51.814;4.510;2023-03-03T04:08:02;102611.81;;;4.41;100.00
11440;BME280;5776;51.814;4.510;2023-03-03T04:10:29;102604.16;;;4.38;100.00
11440;BME280;5776;51.814;4.510;2023-03-03T04:12:55;102613.69;;;4.34;100.00
11440;BME280;5776;51.814;4.510;2023-03-03T04:15:21;102613.88;;;4.32;100.00
11440;BME280;5776;51.814;4.510;2023-03-03T04:17:47;102617.16;;;4.28;100.00
11440;BME280;5776;51.814;4.510;2023-03-03T04:20:13;102622.97;;;4.25;100.00
11440;BME280;5776;51.814;4.510;2023-03-03T04:22:41;102619.63;;;4.23;100.00
11440;BME280;5776;51.814;4.510;2023-03-03T04:25:09;102622.13;;;4.24;100.00
11440;BME280;5776;51.814;4.510;2023-03-03T04:27:37;102618.22;;;4.27;100.00
11440;BME280;5776;51.814;4.510;2023-03-03T04:30:04;102620.28;;;4.25;100.00
11440;BME280;5776;51.814;4.510;2023-03-03T04:32:31;102625.03;;;4.23;100.00
11440;BME280;5776;51.814;4.510;2023-03-03T04:34:58;102621.50;;;4.22;100.00
11440;BME280;5776;51.814;4.510;2023-03-03T04:37:24;102626.06;;;4.22;100.00
11440;BME280;5776;51.814;4.510;2023-03-03T04:39:50;102627.06;;;4.21;100.00
11440;BME280;5776;51.814;4.510;2023-03-03T04:42:16;102628.31;;;4.18;100.00
11440;BME280;5776;51.814;4.510;2023-03-03T04:44:42;102635.16;;;4.21;100.00
11440;BME280;5776;51.814;4.510;2023-03-03T04:47:08;102625.44;;;4.20;100.00
11440;BME280;5776;51.814;4.510;2023-03-03T04:49:34;102631.81;;;4.19;100.00
11440;BME280;5776;51.814;4.510;2023-03-03T04:52:00;102637.59;;;4.16;100.00
11440;BME280;5776;51.814;4.510;2023-03-03T04:54:26;102638.66;;;4.15;100.00
11440;BME280;5776;51.814;4.510;2023-03-03T04:56:52;102632.63;;;4.13;100.00
11440;BME280;5776;51.814;4.510;2023-03-03T04:59:18;102634.28;;;4.14;100.00
11440;BME280;5776;51.814;4.510;2023-03-03T05:01:44;102634.91;;;4.16;100.00
11440;BME280;5776;51.814;4.510;2023-03-03T05:04:11;102640.31;;;4.16;100.00
11440;BME280;5776;51.814;4.510;2023-03-03T05:06:37;102640.53;;;4.14;100.00
11440;BME280;5776;51.814;4.510;2023-03-03T05:09:03;102646.09;;;4.13;100.00
11440;BME280;5776;51.814;4.510;2023-03-03T05:11:29;102645.44;;;4.10;100.00
11440;BME280;5776;51.814;4.510;2023-03-03T05:13:55;102644.44;;;4.11;100.00
11440;BME280;5776;51.814;4.510;2023-03-03T05:16:20;102649.81;;;4.11;100.00
11440;BME280;5776;51.814;4.510;2023-03-03T05:18:46;102647.72;;;4.14;100.00
11440;BME280;5776;51.814;4.510;2023-03-03T05:21:13;102643.59;;;4.11;100.00
11440;BME280;5776;51.814;4.510;2023-03-03T05:23:39;102655.19;;;4.11;100.00
11440;BME280;5776;51.814;4.510;2023-03-03T05:26:05;102648.59;;;4.14;100.00
11440;BME280;5776;51.814;4.510;2023-03-03T05:28:32;102650.66;;;4.19;100.00
11440;BME280;5776;51.814;4.510;2023-03-03T05:30:58;102650.88;;;4.17;100.00
11440;BME280;5776;51.814;4.510;2023-03-03T05:33:24;102651.06;;;4.16;100.00
11440;BME280;5776;51.814;4.510;2023-03-03T05:35:55;102648.38;;;4.16;100.00
11440;BME280;5776;51.814;4.510;2023-03-03T05:38:21;102649.19;;;4.16;100.00
11440;BME280;5776;51.814;4.510;2023-03-03T05:40:47;102649.41;;;4.15;100.00
11440;BME280;5776;51.814;4.510;2023-03-03T05:43:13;102647.72;;;4.14;100.00
11440;BME280;5776;51.814;4.510;2023-03-03T05:45:39;102654.56;;;4.16;100.00
11440;BME280;5776;51.814;4.510;2023-03-03T05:48:05;102646.09;;;4.13;100.00
11440;BME280;5776;51.814;4.510;2023-03-03T05:50:31;102647.94;;;4.12;100.00
11440;BME280;5776;51.814;4.510;2023-03-03T05:52:58;102648.38;;;4.16;100.00
11440;BME280;5776;51.814;4.510;2023-03-03T05:55:23;102642.56;;;4.12;100.00
11440;BME280;5776;51.814;4.510;2023-03-03T05:57:49;102655.19;;;4.11;100.00
11440;BME280;5776;51.814;4.510;2023-03-03T06:00:16;102647.13;;;4.11;100.00
11440;BME280;5776;51.814;4.510;2023-03-03T06:02:42;102651.47;;;4.13;100.00
11440;BME280;5776;51.814;4.510;2023-03-03T06:05:09;102649.19;;;4.09;100.00
11440;BME280;5776;51.814;4.510;2023-03-03T06:07:35;102651.47;;;4.13;100.00
11440;BME280;5776;51.814;4.510;2023-03-03T06:10:01;102654.34;;;4.11;100.00
11440;BME280;5776;51.814;4.510;2023-03-03T06:12:27;102659.53;;;4.13;100.00
11440;BME280;5776;51.814;4.510;2023-03-03T06:15:05;102658.06;;;4.10;100.00
11440;BME280;5776;51.814;4.510;2023-03-03T06:17:31;102666.97;;;4.10;100.00
11440;BME280;5776;51.814;4.510;2023-03-03T06:19:57;102654.16;;;4.13;100.00
11440;BME280;5776;51.814;4.510;2023-03-03T06:22:23;102657.66;;;4.13;100.00
11440;BME280;5776;51.814;4.510;2023-03-03T06:24:49;102669.25;;;4.14;100.00
11440;BME280;5776;51.814;4.510;2023-03-03T06:27:17;102662.31;;;4.32;100.00
11440;BME280;5776;51.814;4.510;2023-03-03T06:29:43;102666.56;;;4.14;100.00
11440;BME280;5776;51.814;4.510;2023-03-03T06:32:10;102670.00;;;4.49;100.00
11440;BME280;5776;51.814;4.510;2023-03-03T06:34:35;102674.16;;;4.58;100.00
11440;BME280;5776;51.814;4.510;2023-03-03T06:37:01;102678.34;;;4.67;100.00
11440;BME280;5776;51.814;4.510;2023-03-03T06:39:27;102684.34;;;4.76;100.00
11440;BME280;5776;51.814;4.510;2023-03-03T06:41:54;102682.28;;;4.78;100.00
11440;BME280;5776;51.814;4.510;2023-03-03T06:44:20;102693.06;;;4.78;100.00
11440;BME280;5776;51.814;4.510;2023-03-03T06:46:46;102687.50;;;4.80;100.00
11440;BME280;5776;51.814;4.510;2023-03-03T06:49:12;102693.91;;;4.85;100.00
11440;BME280;5776;51.814;4.510;2023-03-03T06:51:38;102696.59;;;4.85;100.00
11440;BME280;5776;51.814;4.510;2023-03-03T06:54:15;102695.56;;;4.86;100.00
11440;BME280;5776;51.814;4.510;2023-03-03T06:56:43;102706.53;;;4.91;100.00
11440;BME280;5776;51.814;4.510;2023-03-03T06:59:17;102711.09;;;4.91;100.00
11440;BME280;5776;51.814;4.510;2023-03-03T07:01:46;102709.22;;;4.91;100.00
11440;BME280;5776;51.814;4.510;2023-03-03T07:04:27;102705.53;;;4.92;100.00
11440;BME280;5776;51.814;4.510;2023-03-03T07:06:57;102715.25;;;4.93;100.00
11440;BME280;5776;51.814;4.510;2023-03-03T07:09:26;102716.94;;;4.94;99.73
11440;BME280;5776;51.814;4.510;2023-03-03T07:11:56;102714.00;;;4.96;100.00
11440;BME280;5776;51.814;4.510;2023-03-03T07:14:25;102715.88;;;4.95;100.00
11440;BME280;5776;51.814;4.510;2023-03-03T07:16:57;102719.19;;;4.97;100.00
11440;BME280;5776;51.814;4.510;2023-03-03T07:19:33;102724.59;;;4.97;100.00
11440;BME280;5776;51.814;4.510;2023-03-03T07:22:07;102724.19;;;5.01;100.00
11440;BME280;5776;51.814;4.510;2023-03-03T07:24:37;102721.28;;;5.02;99.02
11440;BME280;5776;51.814;4.510;2023-03-03T07:29:36;102730.81;;;5.05;99.73
11440;BME280;5776;51.814;4.510;2023-03-03T07:34:47;102733.22;;;4.73;100.00
11440;BME280;5776;51.814;4.510;2023-03-03T07:37:21;102728.81;;;4.59;100.00
11440;BME280;5776;51.814;4.510;2023-03-03T07:39:51;102727.78;;;4.53;100.00
11440;BME280;5776;51.814;4.510;2023-03-03T07:42:36;102730.47;;;4.53;100.00
11440;BME280;5776;51.814;4.510;2023-03-03T07:45:20;102735.03;;;4.52;100.00
11440;BME280;5776;51.814;4.510;2023-03-03T07:47:47;102735.22;;;4.51;100.00
11440;BME280;5776;51.814;4.510;2023-03-03T07:52:54;102740.81;;;4.49;100.00
11440;BME280;5776;51.814;4.510;2023-03-03T07:55:38;102745.16;;;4.50;100.00
11440;BME280;5776;51.814;4.510;2023-03-03T08:03:18;102750.13;;;4.47;100.00
11440;BME280;5776;51.814;4.510;2023-03-03T08:05:49;102754.88;;;4.45;100.00
11440;BME280;5776;51.814;4.510;2023-03-03T08:08:48;102752.22;;;4.51;100.00
11440;BME280;5776;51.814;4.510;2023-03-03T08:11:13;102761.28;;;4.50;100.00
11440;BME280;5776;51.814;4.510;2023-03-03T08:13:40;102765.03;;;4.49;100.00
11440;BME280;5776;51.814;4.510;2023-03-03T08:18:35;102766.72;;;4.64;100.00
11440;BME280;5776;51.814;4.510;2023-03-03T08:21:22;102768.88;;;4.82;100.00
11440;BME280;5776;51.814;4.510;2023-03-03T08:23:49;102778.84;;;4.88;100.00
11440;BME280;5776;51.814;4.510;2023-03-03T08:26:20;102781.34;;;4.89;100.00
11440;BME280;5776;51.814;4.510;2023-03-03T08:28:46;102780.91;;;4.92;100.00
11440;BME280;5776;51.814;4.510;2023-03-03T08:31:13;102778.88;;;4.94;100.00
11440;BME280;5776;51.814;4.510;2023-03-03T08:33:39;102784.25;;;4.94;100.00
11440;BME280;5776;51.814;4.510;2023-03-03T08:36:06;102784.84;;;4.96;100.00
11440;BME280;5776;51.814;4.510;2023-03-03T08:38:32;102783.63;;;4.99;100.00
11440;BME280;5776;51.814;4.510;2023-03-03T08:40:58;102781.56;;;5.01;100.00
11440;BME280;5776;51.814;4.510;2023-03-03T08:43:25;102786.13;;;5.01;100.00
11440;BME280;5776;51.814;4.510;2023-03-03T08:45:52;102788.81;;;5.01;100.00
11440;BME280;5776;51.814;4.510;2023-03-03T08:48:19;102792.13;;;5.03;100.00
11440;BME280;5776;51.814;4.510;2023-03-03T08:50:45;102788.41;;;5.04;100.00
11440;BME280;5776;51.814;4.510;2023-03-03T08:53:13;102805.19;;;5.06;100.00
11440;BME280;5776;51.814;4.510;2023-03-03T08:55:39;102791.72;;;5.06;100.00
11440;BME280;5776;51.814;4.510;2023-03-03T08:58:06;102792.53;;;5.06;100.00
11440;BME280;5776;51.814;4.510;2023-03-03T09:00:33;102797.53;;;5.03;100.00
11440;BME280;5776;51.814;4.510;2023-03-03T09:02:59;102794.41;;;5.06;100.00
11440;BME280;5776;51.814;4.510;2023-03-03T09:05:26;102798.16;;;5.05;100.00
11440;BME280;5776;51.814;4.510;2023-03-03T09:07:53;102792.53;;;5.06;100.00
11440;BME280;5776;51.814;4.510;2023-03-03T09:10:23;102802.09;;;5.09;100.00
11440;BME280;5776;51.814;4.510;2023-03-03T09:12:52;102790.28;;;5.10;100.00
11440;BME280;5776;51.814;4.510;2023-03-03T09:15:33;102787.59;;;5.10;100.00
11440;BME280;5776;51.814;4.510;2023-03-03T09:18:21;102790.94;;;5.12;100.00
11440;BME280;5776;51.814;4.510;2023-03-03T09:20:52;102797.13;;;5.12;100.00
11440;BME280;5776;51.814;4.510;2023-03-03T09:26:30;102795.47;;;5.18;100.00
11440;BME280;5776;51.814;4.510;2023-03-03T09:29:16;102797.34;;;5.17;100.00
11440;BME280;5776;51.814;4.510;2023-03-03T09:31:51;102801.50;;;5.20;100.00
11440;BME280;5776;51.814;4.510;2023-03-03T09:36:43;102802.13;;;5.22;100.00
11440;BME280;5776;51.814;4.510;2023-03-03T09:39:19;102796.53;;;5.24;100.00
11440;BME280;5776;51.814;4.510;2023-03-03T09:41:54;102806.47;;;5.23;100.00
11440;BME280;5776;51.814;4.510;2023-03-03T09:49:34;102802.34;;;5.27;100.00
11440;BME280;5776;51.814;4.510;2023-03-03T09:54:48;102807.75;;;5.40;100.00
11440;BME280;5776;51.814;4.510;2023-03-03T09:57:23;102813.16;;;5.47;100.00
11440;BME280;5776;51.814;4.510;2023-03-03T10:08:52;102815.41;;;5.44;100.00
11440;BME280;5776;51.814;4.510;2023-03-03T10:14:17;102818.75;;;5.46;100.00
11440;BME280;5776;51.814;4.510;2023-03-03T10:17:21;102811.72;;;5.45;100.00
11440;BME280;5776;51.814;4.510;2023-03-03T10:22:55;102818.97;;;5.51;100.00
11440;BME280;5776;51.814;4.510;2023-03-03T10:25:42;102820.22;;;5.55;100.00
11440;BME280;5776;51.814;4.510;2023-03-03T10:33:58;102817.94;;;5.65;100.00
11440;BME280;5776;51.814;4.510;2023-03-03T10:50:26;102810.28;;;5.82;100.00
11440;BME280;5776;51.814;4.510;2023-03-03T10:53:17;102813.38;;;5.99;100.00
11440;BME280;5776;51.814;4.510;2023-03-03T11:07:52;102808.16;;;6.24;100.00
11440;BME280;5776;51.814;4.510;2023-03-03T11:10:43;102801.31;;;6.28;100.00
11440;BME280;5776;51.814;4.510;2023-03-03T11:21:36;102807.53;;;6.28;100.00
11440;BME280;5776;51.814;4.510;2023-03-03T11:30:06;102806.53;;;6.30;100.00
11440;BME280;5776;51.814;4.510;2023-03-03T11:43:36;102795.06;;;6.41;100.00
11440;BME280;5776;51.814;4.510;2023-03-03T11:46:21;102792.13;;;6.49;100.00
11440;BME280;5776;51.814;4.510;2023-03-03T11:54:27;102780.66;;;6.60;99.66
11440;BME280;5776;51.814;4.510;2023-03-03T11:57:19;102784.56;;;6.64;100.00
11440;BME280;5776;51.814;4.510;2023-03-03T12:00:15;102785.00;;;6.61;100.00
11440;BME280;5776;51.814;4.510;2023-03-03T12:06:21;102780.41;;;6.68;99.82
11440;BME280;5776;51.814;4.510;2023-03-03T12:12:06;102779.22;;;6.58;99.56
11440;BME280;5776;51.814;4.510;2023-03-03T12:23:12;102762.50;;;6.74;99.43
11440;BME280;5776;51.814;4.510;2023-03-03T12:25:46;102756.72;;;6.70;98.69
11440;BME280;5776;51.814;4.510;2023-03-03T12:28:29;102758.38;;;6.71;99.12
11440;BME280;5776;51.814;4.510;2023-03-03T12:33:58;102751.88;;;6.86;96.80
11440;BME280;5776;51.814;4.510;2023-03-03T12:36:54;102746.00;;;6.96;96.58
11440;BME280;5776;51.814;4.510;2023-03-03T12:45:01;102744.09;;;7.03;95.98
11440;BME280;5776;51.814;4.510;2023-03-03T12:50:29;102744.03;;;7.09;97.09
11440;BME280;5776;51.814;4.510;2023-03-03T12:53:22;102732.19;;;7.10;97.20
11440;BME280;5776;51.814;4.510;2023-03-03T12:55:56;102732.38;;;7.16;95.86
11440;BME280;5776;51.814;4.510;2023-03-03T13:04:04;102734.25;;;7.15;95.76
11440;BME280;5776;51.814;4.510;2023-03-03T13:17:30;102722.16;;;7.18;96.17
11440;BME280;5776;51.814;4.510;2023-03-03T13:20:01;102725.06;;;7.16;95.51
11440;BME280;5776;51.814;4.510;2023-03-03T13:25:33;102727.75;;;7.23;96.03
11440;BME280;5776;51.814;4.510;2023-03-03T13:28:17;102725.22;;;7.28;97.28
11440;BME280;5776;51.814;4.510;2023-03-03T13:30:49;102726.84;;;7.29;96.89
11440;BME280;5776;51.814;4.510;2023-03-03T13:33:25;102729.38;;;7.24;96.90
11440;BME280;5776;51.814;4.510;2023-03-03T13:36:08;102729.41;;;7.17;96.60
11440;BME280;5776;51.814;4.510;2023-03-03T13:38:48;102729.50;;;7.10;96.68
11440;BME280;5776;51.814;4.510;2023-03-03T13:44:03;102729.50;;;7.10;97.54
11440;BME280;5776;51.814;4.510;2023-03-03T13:52:07;102721.84;;;7.01;97.77
11440;BME280;5776;51.814;4.510;2023-03-03T13:54:57;102720.59;;;7.03;97.49
11440;BME280;5776;51.814;4.510;2023-03-03T13:57:36;102715.41;;;7.02;96.53
11440;BME280;5776;51.814;4.510;2023-03-03T14:05:55;102721.66;;;7.02;96.94
11440;BME280;5776;51.814;4.510;2023-03-03T14:11:20;102726.84;;;6.97;96.47
11440;BME280;5776;51.814;4.510;2023-03-03T14:16:38;102722.94;;;6.93;96.55
11440;BME280;5776;51.814;4.510;2023-03-03T14:19:33;102715.22;;;6.97;97.70
11440;BME280;5776;51.814;4.510;2023-03-03T14:25:10;102712.84;;;7.13;97.28
11440;BME280;5776;51.814;4.510;2023-03-03T14:33:03;102716.94;;;7.23;96.08
11440;BME280;5776;51.814;4.510;2023-03-03T14:35:35;102709.25;;;7.20;95.43
11440;BME280;5776;51.814;4.510;2023-03-03T14:38:05;102709.06;;;7.14;95.85
11440;BME280;5776;51.814;4.510;2023-03-03T14:40:36;102703.28;;;7.11;95.80
11440;BME280;5776;51.814;4.510;2023-03-03T14:43:56;102698.94;;;7.10;95.11
11440;BME280;5776;51.814;4.510;2023-03-03T14:48:55;102699.28;;;7.20;95.98
11440;BME280;5776;51.814;4.510;2023-03-03T14:53:48;102696.50;;;7.27;95.46
11440;BME280;5776;51.814;4.510;2023-03-03T14:58:49;102690.75;;;7.17;95.15
11440;BME280;5776;51.814;4.510;2023-03-03T15:03:58;102702.63;;;7.16;95.72
11440;BME280;5776;51.814;4.510;2023-03-03T15:09:28;102695.84;;;7.06;96.14
11440;BME280;5776;51.814;4.510;2023-03-03T15:11:56;102700.22;;;7.07;95.90
11440;BME280;5776;51.814;4.510;2023-03-03T15:14:34;102690.22;;;7.08;95.68
11440;BME280;5776;51.814;4.510;2023-03-03T15:17:25;102687.34;;;7.03;94.41
11440;BME280;5776;51.814;4.510;2023-03-03T15:25:15;102686.94;;;6.99;95.12
11440;BME280;5776;51.814;4.510;2023-03-03T15:33:51;102683.81;;;7.02;95.46
11440;BME280;5776;51.814;4.510;2023-03-03T15:42:23;102670.69;;;7.06;95.40
11440;BME280;5776;51.814;4.510;2023-03-03T16:01:34;102670.09;;;7.04;95.30
11440;BME280;5776;51.814;4.510;2023-03-03T16:04:15;102668.88;;;7.00;95.35
11440;BME280;5776;51.814;4.510;2023-03-03T16:09:39;102678.47;;;6.96;94.59
11440;BME280;5776;51.814;4.510;2023-03-03T16:12:27;102673.44;;;6.99;94.86
11440;BME280;5776;51.814;4.510;2023-03-03T16:18:04;102683.25;;;6.93;94.82
11440;BME280;5776;51.814;4.510;2023-03-03T16:23:46;102678.91;;;6.92;94.60
11440;BME280;5776;51.814;4.510;2023-03-03T16:26:39;102675.28;;;7.05;95.32
11440;BME280;5776;51.814;4.510;2023-03-03T16:29:30;102679.06;;;6.98;92.89
11440;BME280;5776;51.814;4.510;2023-03-03T16:32:15;102678.06;;;6.92;94.51
11440;BME280;5776;51.814;4.510;2023-03-03T16:34:56;102672.06;;;6.90;92.50
11440;BME280;5776;51.814;4.510;2023-03-03T16:37:30;102679.56;;;6.88;92.39
11440;BME280;5776;51.814;4.510;2023-03-03T16:40:13;102687.22;;;6.91;91.63
11440;BME280;5776;51.814;4.510;2023-03-03T16:42:48;102673.56;;;6.79;90.42
11440;BME280;5776;51.814;4.510;2023-03-03T16:45:25;102675.06;;;6.75;89.55
11440;BME280;5776;51.814;4.510;2023-03-03T16:58:54;102686.53;;;6.70;89.97
11440;BME280;5776;51.814;4.510;2023-03-03T17:01:29;102679.84;;;6.73;90.25
11440;BME280;5776;51.814;4.510;2023-03-03T17:04:14;102691.69;;;6.72;94.18
11440;BME280;5776;51.814;4.510;2023-03-03T17:07:04;102689.59;;;7.06;94.74
11440;BME280;5776;51.814;4.510;2023-03-03T17:09:54;102694.09;;;7.19;94.46
11440;BME280;5776;51.814;4.510;2023-03-03T17:26:18;102710.50;;;7.17;96.06
11440;BME280;5776;51.814;4.510;2023-03-03T17:45:32;102733.47;;;7.33;96.42
11440;BME280;5776;51.814;4.510;2023-03-03T17:53:42;102745.06;;;7.40;96.77
11440;BME280;5776;51.814;4.510;2023-03-03T17:56:19;102747.97;;;7.39;97.07
11440;BME280;5776;51.814;4.510;2023-03-03T18:17:22;102760.69;;;7.38;98.16
11440;BME280;5776;51.814;4.510;2023-03-03T18:25:00;102755.47;;;7.36;97.97
11440;BME280;5776;51.814;4.510;2023-03-03T18:30:22;102750.91;;;7.37;97.36
11440;BME280;5776;51.814;4.510;2023-03-03T18:43:40;102754.22;;;7.39;97.64
11440;BME280;5776;51.814;4.510;2023-03-03T18:51:11;102756.31;;;7.37;97.23
11440;BME280;5776;51.814;4.510;2023-03-03T18:54:00;102766.09;;;7.38;97.83
11440;BME280;5776;51.814;4.510;2023-03-03T19:04:39;102765.84;;;7.40;97.29
11440;BME280;5776;51.814;4.510;2023-03-03T19:07:16;102774.81;;;7.40;96.58
11440;BME280;5776;51.814;4.510;2023-03-03T19:12:55;102775.22;;;7.37;96.46
11440;BME280;5776;51.814;4.510;2023-03-03T19:17:59;102773.38;;;7.38;97.63
11440;BME280;5776;51.814;4.510;2023-03-03T19:20:39;102777.72;;;7.39;96.48
11440;BME280;5776;51.814;4.510;2023-03-03T19:23:14;102778.78;;;7.38;97.34